KSBDKABQ

Guest
Details From KSBD - San Bernardino Intl
To KABQ - Albuquerque International Sunport
Flight Number -
Tags Routegen Generated
Created
Modified
Stats Distance 527 nm / 976 km
Max Altitude 8,100 ft / 2,469 m
Waypoints 8
Social Downloads 0
Likes 0
Share

Download

Looking for another format? Having issues loading an existing format? Contact us
Advertisement - Login to hide

Notes

Departing runway 7 KSBD. Arriving runway 9 KABQ.

Route

KSBD +34.12_-117.14 +34.12_-117.07 +34.40_-114.82 +34.63_-112.56 +34.83_-110.29 +35.04_-106.71 KABQ

ID Type Via Altitude (ft/m) Position (lat/lon) Dist (leg/tot) Name
O KSBD APT - 0 / 0 34.09995 / -117.21935 - / 0 nm
+34.12_-117.14 LATLON - 8,100 / 2,469 34.12435 / -117.13707 4 / 4 nm
+34.12_-117.07 LATLON - 8,100 / 2,469 34.12405 / -117.06713 3 / 7 nm
+34.40_-114.82 LATLON - 8,100 / 2,469 34.39895 / -114.81955 112 / 120 nm
+34.63_-112.56 LATLON - 8,100 / 2,469 34.63362 / -112.56170 112 / 233 nm
+34.83_-110.29 LATLON - 8,100 / 2,469 34.82646 / -110.29218 112 / 345 nm
+35.04_-106.71 LATLON - 560 / 171 35.04489 / -106.70998 176 / 522 nm
O KABQ APT - 0 / 0 35.04435 / -106.62159 4 / 527 nm

Altitude Profile

Advertisement - Login to hide

Weather


0- 5 10 15 20 25 30 35+ Temperature / °C

Clouds and Precipitation
Forecast for 2021-12-01 18:00 UTC. Updated 3 hours ago

Ground ~20,000 ft ~40,000 ft Winds

KSBD

Details ICAO KSBD (SBD)
Name San Bernardino Intl
Region United States
Timezone America/Los_Angeles (UTC-8.0)
Stats Elevation 1,159 ft / 353 m (AMSL)
Location 34.095400° -117.235000°
Runways 1
Magnetic Variation 11.440° E

METAR

KSBD 011750Z 00000KT 10SM CLR 29/M03 A3013

Decode

TAF

TAF KSBD 011726Z 0118/0218 VRB04KT P6SM SKC= TAF KTVC 011726Z 0118/0218 19009KT P6SM VCSH OVC040 FM012000 19010G24KT P6SM VCSH OVC035 WS020/21040KT FM020200 23009KT P6SM VCSH OVC080 WS020/23040KT FM020700 23014G23KT P6SM VCSH BKN080 FM021300 26013G25KT P6SM BKN045 FM021600 30015G25KT P6SM BKN027

Decode

Departure Runways

ID Width Length Bearing (true/mag) Surface Threshold Overrun Markings Lighting
06 200 ft / 61 m 9,990 ft / 3,045 m 70.34° / 58.90° CONCRETE 0 ft / 0 m 0 ft / 0 m PREC-APP CENTERLINE EDGE THRESHOLD REIL-OMNI
24 200 ft / 61 m 9,990 ft / 3,045 m 250.35° / 238.92° CONCRETE 0 ft / 0 m 0 ft / 0 m APP CENTERLINE EDGE THRESHOLD REIL-OMNI

KABQ

Details ICAO KABQ (ABQ)
Name Albuquerque
Region United States
Timezone America/Denver (UTC-7.0)
Stats Elevation 5,354 ft / 1,632 m (AMSL)
Location 35.038200° -106.610000°
Runways 3
Magnetic Variation 8.139° E

METAR

KABQ 011752Z 00000KT 10SM FEW300 11/M06 A3036 RMK AO2 SLP259 T01061061 10106 20006 50004

Decode

TAF

TAF KABQ 011720Z 0118/0218 34004KT P6SM SKC FM020100 VRB03KT P6SM FEW250

Decode

Destination Runways

ID Width Length Bearing (true/mag) Surface Threshold Overrun Markings Lighting
03 150 ft / 46 m 10,002 ft / 3,049 m 44.66° / 36.52° CONCRETE 0 ft / 0 m 400 ft / 122 m PREC-APP CENTERLINE EDGE THRESHOLD MALSR TDZ
08 150 ft / 46 m 13,762 ft / 4,195 m 90.43° / 82.29° CONCRETE 1,001 ft / 305 m 551 ft / 168 m PREC-APP CENTERLINE EDGE THRESHOLD MALSR TDZ
12 150 ft / 46 m 6,024 ft / 1,836 m 128.99° / 120.85° CONCRETE 0 ft / 0 m 0 ft / 0 m APP EDGE THRESHOLD
21 150 ft / 46 m 10,002 ft / 3,049 m 224.67° / 216.53° CONCRETE 0 ft / 0 m 0 ft / 0 m APP CENTERLINE EDGE THRESHOLD
26 150 ft / 46 m 13,762 ft / 4,195 m 270.45° / 262.31° CONCRETE 0 ft / 0 m 1,001 ft / 305 m APP CENTERLINE EDGE THRESHOLD REIL-OMNI
30 150 ft / 46 m 6,024 ft / 1,836 m 309.00° / 300.86° CONCRETE 0 ft / 0 m 0 ft / 0 m APP EDGE THRESHOLD REIL-OMNI

Approach Navaids

Runway Type Ident Frequency Range Bearing (true/mag) Slope Elevation
03 GS IBZY 111.50 MHz 10 nm / 19 km 44.67° / 36.53 ° 3.00° 5,354 ft / 1,632 m (AMSL)
03 OM OM - - 44.66° / 36.52 ° - 5,355 ft / 1,632 m (AMSL)
03 LOC-ILS IBZY 111.50 MHz 18 nm / 33 km 44.67° / 36.53 ° - 5,354 ft / 1,632 m (AMSL)
08 OM OM - - 90.44° / 82.30 ° - 5,355 ft / 1,632 m (AMSL)
08 LOC-ILS ISPT 111.90 MHz 18 nm / 33 km 90.44° / 82.30 ° - 5,354 ft / 1,632 m (AMSL)
08 DME ISPT 111.90 MHz 18 nm / 33 km - - 5,374 ft / 1,638 m (AMSL)
08 GS ISPT 111.90 MHz 10 nm / 19 km 90.44° / 82.30 ° 3.00° 5,354 ft / 1,632 m (AMSL)